sensor_id;sensor_type;location;lat;lon;timestamp;P1;durP1;ratioP1;P2;durP2;ratioP2
75526;SDS011;64107;49.248;7.006;2023-04-03T00:01:39;3.70;;;2.38;;
75526;SDS011;64107;49.248;7.006;2023-04-03T00:04:06;2.60;;;1.58;;
75526;SDS011;64107;49.248;7.006;2023-04-03T00:06:32;4.80;;;2.10;;
75526;SDS011;64107;49.248;7.006;2023-04-03T00:08:58;2.83;;;2.38;;
75526;SDS011;64107;49.248;7.006;2023-04-03T00:11:25;2.60;;;2.13;;
75526;SDS011;64107;49.248;7.006;2023-04-03T00:13:51;2.25;;;2.00;;
75526;SDS011;64107;49.248;7.006;2023-04-03T00:18:43;2.78;;;2.30;;
75526;SDS011;64107;49.248;7.006;2023-04-03T00:21:10;2.33;;;1.70;;
75526;SDS011;64107;49.248;7.006;2023-04-03T00:23:38;2.17;;;1.83;;
75526;SDS011;64107;49.248;7.006;2023-04-03T00:26:04;2.42;;;1.80;;
75526;SDS011;64107;49.248;7.006;2023-04-03T00:28:30;3.78;;;1.75;;
75526;SDS011;64107;49.248;7.006;2023-04-03T00:30:56;2.70;;;1.83;;
75526;SDS011;64107;49.248;7.006;2023-04-03T00:33:22;1.98;;;1.40;;
75526;SDS011;64107;49.248;7.006;2023-04-03T00:35:49;3.22;;;2.33;;
75526;SDS011;64107;49.248;7.006;2023-04-03T00:38:16;2.97;;;2.50;;
75526;SDS011;64107;49.248;7.006;2023-04-03T00:40:43;2.80;;;2.40;;
75526;SDS011;64107;49.248;7.006;2023-04-03T00:43:12;4.00;;;2.70;;
75526;SDS011;64107;49.248;7.006;2023-04-03T00:45:41;3.47;;;2.10;;
75526;SDS011;64107;49.248;7.006;2023-04-03T00:48:10;3.10;;;2.13;;
75526;SDS011;64107;49.248;7.006;2023-04-03T00:50:39;3.22;;;2.58;;
75526;SDS011;64107;49.248;7.006;2023-04-03T00:53:06;2.05;;;1.65;;
75526;SDS011;64107;49.248;7.006;2023-04-03T00:55:35;2.42;;;2.13;;
75526;SDS011;64107;49.248;7.006;2023-04-03T00:58:02;4.55;;;2.22;;
75526;SDS011;64107;49.248;7.006;2023-04-03T01:02:54;2.63;;;2.25;;
75526;SDS011;64107;49.248;7.006;2023-04-03T01:07:47;3.55;;;2.30;;
75526;SDS011;64107;49.248;7.006;2023-04-03T01:10:14;3.33;;;2.20;;
75526;SDS011;64107;49.248;7.006;2023-04-03T01:12:42;4.30;;;2.10;;
75526;SDS011;64107;49.248;7.006;2023-04-03T01:15:11;3.20;;;2.28;;
75526;SDS011;64107;49.248;7.006;2023-04-03T01:22:44;4.13;;;2.55;;
75526;SDS011;64107;49.248;7.006;2023-04-03T01:25:12;2.75;;;2.47;;
75526;SDS011;64107;49.248;7.006;2023-04-03T01:27:38;2.90;;;2.30;;
75526;SDS011;64107;49.248;7.006;2023-04-03T01:30:04;5.65;;;2.17;;
75526;SDS011;64107;49.248;7.006;2023-04-03T01:32:31;2.20;;;2.00;;
75526;SDS011;64107;49.248;7.006;2023-04-03T01:34:57;2.72;;;2.10;;
75526;SDS011;64107;49.248;7.006;2023-04-03T01:37:23;2.10;;;1.90;;
75526;SDS011;64107;49.248;7.006;2023-04-03T01:39:49;3.45;;;2.05;;
75526;SDS011;64107;49.248;7.006;2023-04-03T01:42:15;2.67;;;2.33;;
75526;SDS011;64107;49.248;7.006;2023-04-03T01:44:42;3.75;;;2.50;;
75526;SDS011;64107;49.248;7.006;2023-04-03T01:47:09;3.03;;;2.22;;
75526;SDS011;64107;49.248;7.006;2023-04-03T01:49:35;2.88;;;2.13;;
75526;SDS011;64107;49.248;7.006;2023-04-03T01:52:01;4.68;;;1.92;;
75526;SDS011;64107;49.248;7.006;2023-04-03T01:54:27;3.60;;;2.53;;
75526;SDS011;64107;49.248;7.006;2023-04-03T01:56:53;3.42;;;2.25;;
75526;SDS011;64107;49.248;7.006;2023-04-03T01:59:20;3.33;;;2.30;;
75526;SDS011;64107;49.248;7.006;2023-04-03T02:01:46;3.38;;;2.00;;
75526;SDS011;64107;49.248;7.006;2023-04-03T02:06:38;2.65;;;1.92;;
75526;SDS011;64107;49.248;7.006;2023-04-03T02:09:04;2.05;;;1.85;;
75526;SDS011;64107;49.248;7.006;2023-04-03T02:11:31;2.88;;;2.28;;
75526;SDS011;64107;49.248;7.006;2023-04-03T02:13:57;3.67;;;2.03;;
75526;SDS011;64107;49.248;7.006;2023-04-03T02:16:23;5.13;;;3.10;;
75526;SDS011;64107;49.248;7.006;2023-04-03T02:18:49;2.72;;;2.40;;
75526;SDS011;64107;49.248;7.006;2023-04-03T02:21:15;5.28;;;2.53;;
75526;SDS011;64107;49.248;7.006;2023-04-03T02:23:41;4.30;;;2.40;;
75526;SDS011;64107;49.248;7.006;2023-04-03T02:26:11;3.13;;;1.92;;
75526;SDS011;64107;49.248;7.006;2023-04-03T02:28:39;3.67;;;2.70;;
75526;SDS011;64107;49.248;7.006;2023-04-03T02:31:06;4.30;;;2.20;;
75526;SDS011;64107;49.248;7.006;2023-04-03T02:33:33;4.78;;;2.25;;
75526;SDS011;64107;49.248;7.006;2023-04-03T02:36:03;5.85;;;3.22;;
75526;SDS011;64107;49.248;7.006;2023-04-03T02:38:30;5.80;;;2.65;;
75526;SDS011;64107;49.248;7.006;2023-04-03T02:41:03;3.42;;;2.45;;
75526;SDS011;64107;49.248;7.006;2023-04-03T02:43:31;3.83;;;3.00;;
75526;SDS011;64107;49.248;7.006;2023-04-03T02:45:57;4.07;;;2.45;;
75526;SDS011;64107;49.248;7.006;2023-04-03T02:48:23;3.45;;;2.38;;
75526;SDS011;64107;49.248;7.006;2023-04-03T02:50:49;3.72;;;3.25;;
75526;SDS011;64107;49.248;7.006;2023-04-03T02:53:16;4.72;;;3.00;;
75526;SDS011;64107;49.248;7.006;2023-04-03T02:55:42;3.55;;;2.90;;
75526;SDS011;64107;49.248;7.006;2023-04-03T03:00:34;3.75;;;2.30;;
75526;SDS011;64107;49.248;7.006;2023-04-03T03:03:00;6.22;;;3.33;;
75526;SDS011;64107;49.248;7.006;2023-04-03T03:05:27;4.07;;;3.08;;
75526;SDS011;64107;49.248;7.006;2023-04-03T03:10:19;7.45;;;4.25;;
75526;SDS011;64107;49.248;7.006;2023-04-03T03:12:45;5.03;;;2.55;;
75526;SDS011;64107;49.248;7.006;2023-04-03T03:17:37;2.88;;;2.50;;
75526;SDS011;64107;49.248;7.006;2023-04-03T03:20:04;5.47;;;2.75;;
75526;SDS011;64107;49.248;7.006;2023-04-03T03:22:31;3.17;;;2.58;;
75526;SDS011;64107;49.248;7.006;2023-04-03T03:24:57;4.97;;;3.45;;
75526;SDS011;64107;49.248;7.006;2023-04-03T03:27:23;6.30;;;3.90;;
75526;SDS011;64107;49.248;7.006;2023-04-03T03:29:50;3.65;;;2.45;;
75526;SDS011;64107;49.248;7.006;2023-04-03T03:34:42;3.63;;;2.08;;
75526;SDS011;64107;49.248;7.006;2023-04-03T03:37:08;11.93;;;7.03;;
75526;SDS011;64107;49.248;7.006;2023-04-03T03:39:34;4.63;;;2.90;;
75526;SDS011;64107;49.248;7.006;2023-04-03T03:44:26;5.50;;;2.30;;
75526;SDS011;64107;49.248;7.006;2023-04-03T03:46:54;2.67;;;2.47;;
75526;SDS011;64107;49.248;7.006;2023-04-03T03:49:20;5.95;;;2.67;;
75526;SDS011;64107;49.248;7.006;2023-04-03T03:51:46;4.03;;;2.72;;
75526;SDS011;64107;49.248;7.006;2023-04-03T03:54:13;4.18;;;2.78;;
75526;SDS011;64107;49.248;7.006;2023-04-03T03:56:39;4.32;;;2.92;;
75526;SDS011;64107;49.248;7.006;2023-04-03T03:59:05;4.10;;;2.67;;
75526;SDS011;64107;49.248;7.006;2023-04-03T04:01:32;3.50;;;2.38;;
75526;SDS011;64107;49.248;7.006;2023-04-03T04:03:58;3.95;;;2.72;;
75526;SDS011;64107;49.248;7.006;2023-04-03T04:06:24;3.67;;;2.85;;
75526;SDS011;64107;49.248;7.006;2023-04-03T04:08:51;5.00;;;3.47;;
75526;SDS011;64107;49.248;7.006;2023-04-03T04:11:17;3.83;;;2.97;;
75526;SDS011;64107;49.248;7.006;2023-04-03T04:13:43;2.40;;;2.20;;
75526;SDS011;64107;49.248;7.006;2023-04-03T04:16:09;3.15;;;2.40;;
75526;SDS011;64107;49.248;7.006;2023-04-03T04:18:36;3.35;;;2.88;;
75526;SDS011;64107;49.248;7.006;2023-04-03T04:21:02;2.67;;;2.25;;
75526;SDS011;64107;49.248;7.006;2023-04-03T04:23:28;3.50;;;2.67;;
75526;SDS011;64107;49.248;7.006;2023-04-03T04:25:54;4.55;;;3.60;;
75526;SDS011;64107;49.248;7.006;2023-04-03T04:28:20;10.73;;;2.85;;
75526;SDS011;64107;49.248;7.006;2023-04-03T04:30:46;2.80;;;2.47;;
75526;SDS011;64107;49.248;7.006;2023-04-03T04:33:12;5.07;;;3.22;;
75526;SDS011;64107;49.248;7.006;2023-04-03T04:35:39;4.60;;;2.92;;
75526;SDS011;64107;49.248;7.006;2023-04-03T04:38:06;5.78;;;3.40;;
75526;SDS011;64107;49.248;7.006;2023-04-03T04:40:33;5.40;;;3.13;;
75526;SDS011;64107;49.248;7.006;2023-04-03T04:42:59;4.05;;;2.67;;
75526;SDS011;64107;49.248;7.006;2023-04-03T04:45:25;7.88;;;3.35;;
75526;SDS011;64107;49.248;7.006;2023-04-03T04:47:53;3.63;;;2.92;;
75526;SDS011;64107;49.248;7.006;2023-04-03T04:50:20;4.47;;;3.47;;
75526;SDS011;64107;49.248;7.006;2023-04-03T04:52:46;3.70;;;2.90;;
75526;SDS011;64107;49.248;7.006;2023-04-03T04:55:12;3.40;;;2.97;;
75526;SDS011;64107;49.248;7.006;2023-04-03T04:57:39;3.17;;;2.38;;
75526;SDS011;64107;49.248;7.006;2023-04-03T05:00:05;4.32;;;2.50;;
75526;SDS011;64107;49.248;7.006;2023-04-03T05:02:31;4.07;;;3.00;;
75526;SDS011;64107;49.248;7.006;2023-04-03T05:04:57;5.15;;;2.10;;
75526;SDS011;64107;49.248;7.006;2023-04-03T05:07:24;4.00;;;2.53;;
75526;SDS011;64107;49.248;7.006;2023-04-03T05:09:50;3.38;;;2.70;;
75526;SDS011;64107;49.248;7.006;2023-04-03T05:12:16;3.75;;;2.08;;
75526;SDS011;64107;49.248;7.006;2023-04-03T05:14:42;3.92;;;2.85;;
75526;SDS011;64107;49.248;7.006;2023-04-03T05:17:08;2.97;;;2.33;;
75526;SDS011;64107;49.248;7.006;2023-04-03T05:19:35;4.60;;;2.70;;
75526;SDS011;64107;49.248;7.006;2023-04-03T05:22:01;3.53;;;2.20;;
75526;SDS011;64107;49.248;7.006;2023-04-03T05:26:53;2.05;;;1.45;;
75526;SDS011;64107;49.248;7.006;2023-04-03T05:29:20;3.70;;;2.75;;
75526;SDS011;64107;49.248;7.006;2023-04-03T05:31:46;3.30;;;2.35;;
75526;SDS011;64107;49.248;7.006;2023-04-03T05:34:15;6.15;;;2.00;;
75526;SDS011;64107;49.248;7.006;2023-04-03T05:36:41;2.42;;;1.60;;
75526;SDS011;64107;49.248;7.006;2023-04-03T05:39:07;2.58;;;2.38;;
75526;SDS011;64107;49.248;7.006;2023-04-03T05:44:00;3.85;;;2.40;;
75526;SDS011;64107;49.248;7.006;2023-04-03T05:46:26;2.85;;;1.85;;
75526;SDS011;64107;49.248;7.006;2023-04-03T05:51:22;3.08;;;1.40;;
75526;SDS011;64107;49.248;7.006;2023-04-03T05:53:52;1.90;;;1.23;;
75526;SDS011;64107;49.248;7.006;2023-04-03T05:56:23;4.05;;;1.85;;
75526;SDS011;64107;49.248;7.006;2023-04-03T05:58:50;3.10;;;1.90;;
75526;SDS011;64107;49.248;7.006;2023-04-03T06:01:16;5.55;;;2.53;;
75526;SDS011;64107;49.248;7.006;2023-04-03T06:03:42;1.60;;;1.13;;
75526;SDS011;64107;49.248;7.006;2023-04-03T06:06:10;3.03;;;2.20;;
75526;SDS011;64107;49.248;7.006;2023-04-03T06:08:38;3.80;;;1.92;;
75526;SDS011;64107;49.248;7.006;2023-04-03T06:13:31;3.55;;;2.20;;
75526;SDS011;64107;49.248;7.006;2023-04-03T06:15:58;3.25;;;2.40;;
75526;SDS011;64107;49.248;7.006;2023-04-03T06:18:24;6.18;;;2.58;;
75526;SDS011;64107;49.248;7.006;2023-04-03T06:20:50;2.90;;;1.95;;
75526;SDS011;64107;49.248;7.006;2023-04-03T06:23:16;3.95;;;2.05;;
75526;SDS011;64107;49.248;7.006;2023-04-03T06:25:42;4.35;;;2.35;;
75526;SDS011;64107;49.248;7.006;2023-04-03T06:28:09;3.70;;;2.45;;
75526;SDS011;64107;49.248;7.006;2023-04-03T06:30:35;2.88;;;2.20;;
75526;SDS011;64107;49.248;7.006;2023-04-03T06:33:01;3.22;;;2.15;;
75526;SDS011;64107;49.248;7.006;2023-04-03T06:35:28;2.17;;;1.80;;
75526;SDS011;64107;49.248;7.006;2023-04-03T06:37:55;2.72;;;1.73;;
75526;SDS011;64107;49.248;7.006;2023-04-03T06:42:48;2.45;;;1.48;;
75526;SDS011;64107;49.248;7.006;2023-04-03T06:47:41;2.88;;;1.98;;
75526;SDS011;64107;49.248;7.006;2023-04-03T06:50:07;3.42;;;1.52;;
75526;SDS011;64107;49.248;7.006;2023-04-03T06:52:36;2.17;;;1.00;;
75526;SDS011;64107;49.248;7.006;2023-04-03T06:55:02;5.50;;;1.63;;
75526;SDS011;64107;49.248;7.006;2023-04-03T06:57:29;4.45;;;2.40;;
75526;SDS011;64107;49.248;7.006;2023-04-03T07:02:21;2.10;;;1.40;;
75526;SDS011;64107;49.248;7.006;2023-04-03T07:04:47;2.15;;;1.65;;
75526;SDS011;64107;49.248;7.006;2023-04-03T07:07:13;3.53;;;1.98;;
75526;SDS011;64107;49.248;7.006;2023-04-03T07:09:39;3.22;;;1.65;;
75526;SDS011;64107;49.248;7.006;2023-04-03T07:12:07;1.92;;;1.73;;
75526;SDS011;64107;49.248;7.006;2023-04-03T07:14:33;2.97;;;1.80;;
75526;SDS011;64107;49.248;7.006;2023-04-03T07:17:00;2.85;;;2.00;;
75526;SDS011;64107;49.248;7.006;2023-04-03T07:19:26;4.45;;;1.70;;
75526;SDS011;64107;49.248;7.006;2023-04-03T07:21:53;2.70;;;1.27;;
75526;SDS011;64107;49.248;7.006;2023-04-03T07:24:19;4.45;;;1.90;;
75526;SDS011;64107;49.248;7.006;2023-04-03T07:29:15;2.45;;;1.20;;
75526;SDS011;64107;49.248;7.006;2023-04-03T07:31:41;4.25;;;1.42;;
75526;SDS011;64107;49.248;7.006;2023-04-03T07:36:33;1.60;;;1.20;;
75526;SDS011;64107;49.248;7.006;2023-04-03T07:41:25;2.83;;;1.52;;
75526;SDS011;64107;49.248;7.006;2023-04-03T07:46:17;3.08;;;2.00;;
75526;SDS011;64107;49.248;7.006;2023-04-03T07:51:10;1.50;;;0.98;;
75526;SDS011;64107;49.248;7.006;2023-04-03T07:53:36;2.33;;;1.63;;
75526;SDS011;64107;49.248;7.006;2023-04-03T07:56:02;2.05;;;1.48;;
75526;SDS011;64107;49.248;7.006;2023-04-03T07:58:28;2.63;;;1.23;;
75526;SDS011;64107;49.248;7.006;2023-04-03T08:03:21;2.60;;;1.40;;
75526;SDS011;64107;49.248;7.006;2023-04-03T08:05:47;2.75;;;1.60;;
75526;SDS011;64107;49.248;7.006;2023-04-03T08:08:15;5.20;;;2.70;;
75526;SDS011;64107;49.248;7.006;2023-04-03T08:10:43;3.25;;;2.33;;
75526;SDS011;64107;49.248;7.006;2023-04-03T08:13:09;3.40;;;1.88;;
75526;SDS011;64107;49.248;7.006;2023-04-03T08:18:01;3.58;;;1.63;;
75526;SDS011;64107;49.248;7.006;2023-04-03T08:20:28;5.50;;;2.22;;
75526;SDS011;64107;49.248;7.006;2023-04-03T08:25:20;5.60;;;1.83;;
75526;SDS011;64107;49.248;7.006;2023-04-03T08:30:12;4.95;;;2.30;;
75526;SDS011;64107;49.248;7.006;2023-04-03T08:32:38;3.80;;;1.40;;
75526;SDS011;64107;49.248;7.006;2023-04-03T08:35:06;2.30;;;1.23;;
75526;SDS011;64107;49.248;7.006;2023-04-03T08:37:36;3.35;;;1.30;;
75526;SDS011;64107;49.248;7.006;2023-04-03T08:40:05;2.42;;;1.02;;
75526;SDS011;64107;49.248;7.006;2023-04-03T08:45:22;1.80;;;1.30;;
75526;SDS011;64107;49.248;7.006;2023-04-03T08:47:58;3.05;;;1.45;;
75526;SDS011;64107;49.248;7.006;2023-04-03T08:50:33;4.68;;;1.90;;
75526;SDS011;64107;49.248;7.006;2023-04-03T08:53:11;2.75;;;1.50;;
75526;SDS011;64107;49.248;7.006;2023-04-03T08:55:44;3.33;;;1.15;;
75526;SDS011;64107;49.248;7.006;2023-04-03T08:58:15;2.97;;;1.42;;
75526;SDS011;64107;49.248;7.006;2023-04-03T09:00:49;4.05;;;1.60;;
75526;SDS011;64107;49.248;7.006;2023-04-03T09:03:17;2.70;;;1.80;;
75526;SDS011;64107;49.248;7.006;2023-04-03T09:13:24;1.77;;;1.35;;
75526;SDS011;64107;49.248;7.006;2023-04-03T09:15:59;2.72;;;1.20;;
75526;SDS011;64107;49.248;7.006;2023-04-03T09:18:33;1.38;;;1.05;;
75526;SDS011;64107;49.248;7.006;2023-04-03T09:21:10;1.17;;;0.75;;
75526;SDS011;64107;49.248;7.006;2023-04-03T09:29:25;8.50;;;4.43;;
75526;SDS011;64107;49.248;7.006;2023-04-03T09:31:59;3.53;;;1.50;;
75526;SDS011;64107;49.248;7.006;2023-04-03T09:34:27;1.45;;;0.93;;
75526;SDS011;64107;49.248;7.006;2023-04-03T09:36:59;1.77;;;0.95;;
75526;SDS011;64107;49.248;7.006;2023-04-03T09:39:31;4.32;;;1.40;;
75526;SDS011;64107;49.248;7.006;2023-04-03T09:42:11;1.45;;;0.82;;
75526;SDS011;64107;49.248;7.006;2023-04-03T09:44:44;3.47;;;0.93;;
75526;SDS011;64107;49.248;7.006;2023-04-03T09:47:26;2.38;;;1.05;;
75526;SDS011;64107;49.248;7.006;2023-04-03T09:50:09;1.05;;;0.70;;
75526;SDS011;64107;49.248;7.006;2023-04-03T09:52:51;5.32;;;1.35;;
75526;SDS011;64107;49.248;7.006;2023-04-03T09:57:46;1.35;;;1.00;;
75526;SDS011;64107;49.248;7.006;2023-04-03T10:00:19;3.80;;;0.90;;
75526;SDS011;64107;49.248;7.006;2023-04-03T10:02:54;5.22;;;1.27;;
75526;SDS011;64107;49.248;7.006;2023-04-03T10:05:25;3.45;;;1.23;;
75526;SDS011;64107;49.248;7.006;2023-04-03T10:07:51;4.60;;;1.30;;
75526;SDS011;64107;49.248;7.006;2023-04-03T10:10:20;2.50;;;0.90;;
75526;SDS011;64107;49.248;7.006;2023-04-03T10:15:45;3.42;;;1.27;;
75526;SDS011;64107;49.248;7.006;2023-04-03T10:18:44;2.38;;;0.85;;
75526;SDS011;64107;49.248;7.006;2023-04-03T10:21:40;2.70;;;1.17;;
75526;SDS011;64107;49.248;7.006;2023-04-03T10:24:23;2.60;;;1.67;;
75526;SDS011;64107;49.248;7.006;2023-04-03T10:28:00;2.58;;;1.40;;
75526;SDS011;64107;49.248;7.006;2023-04-03T10:30:08;1.85;;;1.20;;
75526;SDS011;64107;49.248;7.006;2023-04-03T10:32:50;3.60;;;1.40;;
75526;SDS011;64107;49.248;7.006;2023-04-03T10:38:51;3.40;;;1.40;;
75526;SDS011;64107;49.248;7.006;2023-04-03T10:41:03;2.67;;;1.23;;
75526;SDS011;64107;49.248;7.006;2023-04-03T10:46:42;2.97;;;1.08;;
75526;SDS011;64107;49.248;7.006;2023-04-03T10:52:19;2.40;;;1.20;;
75526;SDS011;64107;49.248;7.006;2023-04-03T10:55:13;2.47;;;1.45;;
75526;SDS011;64107;49.248;7.006;2023-04-03T10:57:46;1.45;;;0.90;;
75526;SDS011;64107;49.248;7.006;2023-04-03T11:00:21;2.22;;;1.13;;
75526;SDS011;64107;49.248;7.006;2023-04-03T11:02:55;4.07;;;1.10;;
75526;SDS011;64107;49.248;7.006;2023-04-03T11:05:45;3.50;;;1.40;;
75526;SDS011;64107;49.248;7.006;2023-04-03T11:08:16;2.08;;;0.82;;
75526;SDS011;64107;49.248;7.006;2023-04-03T11:10:58;3.67;;;1.70;;
75526;SDS011;64107;49.248;7.006;2023-04-03T11:13:46;2.05;;;1.25;;
75526;SDS011;64107;49.248;7.006;2023-04-03T11:16:26;2.72;;;1.30;;
75526;SDS011;64107;49.248;7.006;2023-04-03T11:18:56;3.58;;;1.50;;
75526;SDS011;64107;49.248;7.006;2023-04-03T11:21:26;2.67;;;1.23;;
75526;SDS011;64107;49.248;7.006;2023-04-03T11:23:56;1.98;;;1.13;;
75526;SDS011;64107;49.248;7.006;2023-04-03T11:26:24;3.42;;;1.15;;
75526;SDS011;64107;49.248;7.006;2023-04-03T11:28:56;1.52;;;1.10;;
75526;SDS011;64107;49.248;7.006;2023-04-03T11:31:33;1.92;;;1.58;;
75526;SDS011;64107;49.248;7.006;2023-04-03T11:36:41;3.33;;;2.10;;
75526;SDS011;64107;49.248;7.006;2023-04-03T11:39:17;2.50;;;1.10;;
75526;SDS011;64107;49.248;7.006;2023-04-03T11:41:52;3.50;;;1.30;;
75526;SDS011;64107;49.248;7.006;2023-04-03T11:47:02;2.85;;;1.40;;
75526;SDS011;64107;49.248;7.006;2023-04-03T12:01:00;1.88;;;1.02;;
75526;SDS011;64107;49.248;7.006;2023-04-03T12:05:52;2.45;;;1.10;;
75526;SDS011;64107;49.248;7.006;2023-04-03T12:08:24;2.20;;;1.60;;
75526;SDS011;64107;49.248;7.006;2023-04-03T12:16:21;1.65;;;1.33;;
75526;SDS011;64107;49.248;7.006;2023-04-03T12:24:31;2.13;;;1.15;;
75526;SDS011;64107;49.248;7.006;2023-04-03T12:35:13;2.78;;;1.25;;
75526;SDS011;64107;49.248;7.006;2023-04-03T12:46:08;4.70;;;1.10;;
75526;SDS011;64107;49.248;7.006;2023-04-03T12:51:18;1.73;;;1.00;;
75526;SDS011;64107;49.248;7.006;2023-04-03T12:53:57;2.28;;;1.20;;
75526;SDS011;64107;49.248;7.006;2023-04-03T12:56:31;2.40;;;1.42;;
75526;SDS011;64107;49.248;7.006;2023-04-03T13:01:38;2.80;;;1.20;;
75526;SDS011;64107;49.248;7.006;2023-04-03T13:04:05;1.17;;;1.00;;
75526;SDS011;64107;49.248;7.006;2023-04-03T13:06:32;1.50;;;1.05;;
75526;SDS011;64107;49.248;7.006;2023-04-03T13:09:03;3.33;;;1.05;;
75526;SDS011;64107;49.248;7.006;2023-04-03T13:11:32;3.17;;;1.20;;
75526;SDS011;64107;49.248;7.006;2023-04-03T13:14:04;2.58;;;1.45;;
75526;SDS011;64107;49.248;7.006;2023-04-03T13:16:40;1.73;;;1.02;;
75526;SDS011;64107;49.248;7.006;2023-04-03T13:19:06;2.95;;;1.38;;
75526;SDS011;64107;49.248;7.006;2023-04-03T13:21:41;2.88;;;1.00;;
75526;SDS011;64107;49.248;7.006;2023-04-03T13:24:09;2.10;;;1.38;;
75526;SDS011;64107;49.248;7.006;2023-04-03T13:26:35;4.38;;;1.27;;
75526;SDS011;64107;49.248;7.006;2023-04-03T13:29:06;3.92;;;1.50;;
75526;SDS011;64107;49.248;7.006;2023-04-03T13:31:37;1.88;;;0.80;;
75526;SDS011;64107;49.248;7.006;2023-04-03T13:34:16;4.43;;;1.02;;
75526;SDS011;64107;49.248;7.006;2023-04-03T13:36:46;3.40;;;1.45;;
75526;SDS011;64107;49.248;7.006;2023-04-03T13:41:43;2.55;;;1.23;;
75526;SDS011;64107;49.248;7.006;2023-04-03T13:44:44;2.65;;;1.25;;
75526;SDS011;64107;49.248;7.006;2023-04-03T13:49:40;3.10;;;1.30;;
75526;SDS011;64107;49.248;7.006;2023-04-03T13:52:28;2.17;;;0.95;;
75526;SDS011;64107;49.248;7.006;2023-04-03T13:55:03;2.55;;;0.90;;
75526;SDS011;64107;49.248;7.006;2023-04-03T14:00:38;3.45;;;1.13;;
75526;SDS011;64107;49.248;7.006;2023-04-03T14:03:23;1.50;;;0.88;;
75526;SDS011;64107;49.248;7.006;2023-04-03T14:05:57;2.33;;;1.38;;
75526;SDS011;64107;49.248;7.006;2023-04-03T14:08:23;2.03;;;1.30;;
75526;SDS011;64107;49.248;7.006;2023-04-03T14:10:49;2.75;;;1.52;;
75526;SDS011;64107;49.248;7.006;2023-04-03T14:13:17;2.42;;;1.08;;
75526;SDS011;64107;49.248;7.006;2023-04-03T14:15:45;1.90;;;1.10;;
75526;SDS011;64107;49.248;7.006;2023-04-03T14:18:13;2.25;;;1.35;;
75526;SDS011;64107;49.248;7.006;2023-04-03T14:20:41;1.88;;;0.85;;
75526;SDS011;64107;49.248;7.006;2023-04-03T14:23:08;3.38;;;1.10;;
75526;SDS011;64107;49.248;7.006;2023-04-03T14:25:34;3.83;;;1.05;;
75526;SDS011;64107;49.248;7.006;2023-04-03T14:28:00;1.90;;;1.10;;
75526;SDS011;64107;49.248;7.006;2023-04-03T14:30:32;1.80;;;1.27;;
75526;SDS011;64107;49.248;7.006;2023-04-03T14:32:59;1.55;;;1.02;;
75526;SDS011;64107;49.248;7.006;2023-04-03T14:35:26;3.08;;;1.38;;
75526;SDS011;64107;49.248;7.006;2023-04-03T14:37:52;1.77;;;0.80;;
75526;SDS011;64107;49.248;7.006;2023-04-03T14:40:22;4.05;;;1.20;;
75526;SDS011;64107;49.248;7.006;2023-04-03T14:42:52;3.22;;;1.20;;
75526;SDS011;64107;49.248;7.006;2023-04-03T14:45:21;2.40;;;1.20;;
75526;SDS011;64107;49.248;7.006;2023-04-03T14:47:48;1.95;;;1.17;;
75526;SDS011;64107;49.248;7.006;2023-04-03T14:50:21;3.45;;;1.33;;
75526;SDS011;64107;49.248;7.006;2023-04-03T14:52:49;2.00;;;1.10;;
75526;SDS011;64107;49.248;7.006;2023-04-03T14:55:17;2.05;;;0.88;;
75526;SDS011;64107;49.248;7.006;2023-04-03T14:57:44;2.17;;;1.33;;
75526;SDS011;64107;49.248;7.006;2023-04-03T15:00:12;2.25;;;1.13;;
75526;SDS011;64107;49.248;7.006;2023-04-03T15:02:43;1.95;;;1.10;;
75526;SDS011;64107;49.248;7.006;2023-04-03T15:05:10;2.28;;;1.20;;
75526;SDS011;64107;49.248;7.006;2023-04-03T15:07:38;5.13;;;1.30;;
75526;SDS011;64107;49.248;7.006;2023-04-03T15:10:14;2.97;;;0.82;;
75526;SDS011;64107;49.248;7.006;2023-04-03T15:12:51;3.83;;;1.17;;
75526;SDS011;64107;49.248;7.006;2023-04-03T15:15:18;3.25;;;1.30;;
75526;SDS011;64107;49.248;7.006;2023-04-03T15:17:46;1.45;;;0.90;;
75526;SDS011;64107;49.248;7.006;2023-04-03T15:20:19;2.53;;;1.10;;
75526;SDS011;64107;49.248;7.006;2023-04-03T15:25:13;3.22;;;1.13;;
75526;SDS011;64107;49.248;7.006;2023-04-03T15:27:39;2.63;;;0.82;;
75526;SDS011;64107;49.248;7.006;2023-04-03T15:30:06;2.38;;;1.30;;
75526;SDS011;64107;49.248;7.006;2023-04-03T15:32:36;1.55;;;1.00;;
75526;SDS011;64107;49.248;7.006;2023-04-03T15:35:02;2.58;;;1.20;;
75526;SDS011;64107;49.248;7.006;2023-04-03T15:37:28;2.83;;;1.60;;
75526;SDS011;64107;49.248;7.006;2023-04-03T15:39:55;2.38;;;1.30;;
75526;SDS011;64107;49.248;7.006;2023-04-03T15:42:21;1.88;;;1.00;;
75526;SDS011;64107;49.248;7.006;2023-04-03T15:44:47;3.03;;;1.55;;
75526;SDS011;64107;49.248;7.006;2023-04-03T15:47:13;3.35;;;1.60;;
75526;SDS011;64107;49.248;7.006;2023-04-03T15:49:39;1.70;;;1.10;;
75526;SDS011;64107;49.248;7.006;2023-04-03T15:52:05;2.38;;;1.20;;
75526;SDS011;64107;49.248;7.006;2023-04-03T15:54:31;2.05;;;1.27;;
75526;SDS011;64107;49.248;7.006;2023-04-03T15:56:57;2.38;;;1.15;;
75526;SDS011;64107;49.248;7.006;2023-04-03T15:59:23;1.77;;;1.30;;
75526;SDS011;64107;49.248;7.006;2023-04-03T16:01:49;2.55;;;1.05;;
75526;SDS011;64107;49.248;7.006;2023-04-03T16:04:16;1.60;;;1.20;;
75526;SDS011;64107;49.248;7.006;2023-04-03T16:06:43;3.15;;;1.23;;
75526;SDS011;64107;49.248;7.006;2023-04-03T16:09:09;2.92;;;1.50;;
75526;SDS011;64107;49.248;7.006;2023-04-03T16:11:35;1.60;;;0.93;;
75526;SDS011;64107;49.248;7.006;2023-04-03T16:14:04;2.63;;;1.73;;
75526;SDS011;64107;49.248;7.006;2023-04-03T16:16:31;2.90;;;1.13;;
75526;SDS011;64107;49.248;7.006;2023-04-03T16:18:57;2.75;;;1.10;;
75526;SDS011;64107;49.248;7.006;2023-04-03T16:21:23;3.22;;;1.17;;
75526;SDS011;64107;49.248;7.006;2023-04-03T16:23:49;3.13;;;1.30;;
75526;SDS011;64107;49.248;7.006;2023-04-03T16:26:15;6.82;;;1.40;;
75526;SDS011;64107;49.248;7.006;2023-04-03T16:28:42;2.25;;;1.30;;
75526;SDS011;64107;49.248;7.006;2023-04-03T16:31:08;2.47;;;1.60;;
75526;SDS011;64107;49.248;7.006;2023-04-03T16:33:35;2.85;;;1.23;;
75526;SDS011;64107;49.248;7.006;2023-04-03T16:36:02;2.60;;;1.13;;
75526;SDS011;64107;49.248;7.006;2023-04-03T16:38:29;1.85;;;0.98;;
75526;SDS011;64107;49.248;7.006;2023-04-03T16:40:55;2.55;;;0.73;;
75526;SDS011;64107;49.248;7.006;2023-04-03T16:43:24;3.55;;;1.50;;
75526;SDS011;64107;49.248;7.006;2023-04-03T16:45:50;1.95;;;1.40;;
75526;SDS011;64107;49.248;7.006;2023-04-03T16:48:17;3.75;;;1.38;;
75526;SDS011;64107;49.248;7.006;2023-04-03T16:50:45;5.70;;;1.20;;
75526;SDS011;64107;49.248;7.006;2023-04-03T16:53:13;1.75;;;1.20;;
75526;SDS011;64107;49.248;7.006;2023-04-03T16:55:40;1.70;;;1.20;;
75526;SDS011;64107;49.248;7.006;2023-04-03T16:58:06;4.90;;;1.92;;
75526;SDS011;64107;49.248;7.006;2023-04-03T17:00:32;2.60;;;1.13;;
75526;SDS011;64107;49.248;7.006;2023-04-03T17:02:59;3.28;;;1.30;;
75526;SDS011;64107;49.248;7.006;2023-04-03T17:05:25;1.80;;;1.20;;
75526;SDS011;64107;49.248;7.006;2023-04-03T17:07:51;2.78;;;1.45;;
75526;SDS011;64107;49.248;7.006;2023-04-03T17:10:17;1.70;;;1.02;;
75526;SDS011;64107;49.248;7.006;2023-04-03T17:12:43;1.63;;;1.10;;
75526;SDS011;64107;49.248;7.006;2023-04-03T17:15:10;1.17;;;0.90;;
75526;SDS011;64107;49.248;7.006;2023-04-03T17:17:36;2.50;;;1.30;;
75526;SDS011;64107;49.248;7.006;2023-04-03T17:20:02;2.53;;;1.00;;
75526;SDS011;64107;49.248;7.006;2023-04-03T17:22:29;1.20;;;0.80;;
75526;SDS011;64107;49.248;7.006;2023-04-03T17:24:57;5.55;;;3.72;;
75526;SDS011;64107;49.248;7.006;2023-04-03T17:27:23;2.70;;;1.33;;
75526;SDS011;64107;49.248;7.006;2023-04-03T17:29:49;9.13;;;5.07;;
75526;SDS011;64107;49.248;7.006;2023-04-03T17:32:15;3.88;;;2.08;;
75526;SDS011;64107;49.248;7.006;2023-04-03T17:34:41;2.90;;;1.92;;
75526;SDS011;64107;49.248;7.006;2023-04-03T17:37:08;12.35;;;5.68;;